sensor_id;sensor_type;location;lat;lon;timestamp;temperature;humidity
13245;DHT22;6689;53.400;12.486;2024-03-22T00:01:55;8.40;23.60
13245;DHT22;6689;53.400;12.486;2024-03-22T00:04:22;8.40;3.60
13245;DHT22;6689;53.400;12.486;2024-03-22T00:06:49;8.40;11.30
13245;DHT22;6689;53.400;12.486;2024-03-22T00:09:17;8.40;28.70
13245;DHT22;6689;53.400;12.486;2024-03-22T00:11:44;8.40;23.50
13245;DHT22;6689;53.400;12.486;2024-03-22T00:14:13;8.40;21.50
13245;DHT22;6689;53.400;12.486;2024-03-22T00:16:39;8.40;32.40
13245;DHT22;6689;53.400;12.486;2024-03-22T00:19:06;8.40;37.80
13245;DHT22;6689;53.400;12.486;2024-03-22T00:21:32;8.40;43.10
13245;DHT22;6689;53.400;12.486;2024-03-22T00:23:59;8.40;37.80
13245;DHT22;6689;53.400;12.486;2024-03-22T00:26:27;8.40;56.90
13245;DHT22;6689;53.400;12.486;2024-03-22T00:28:55;8.40;59.90
13245;DHT22;6689;53.400;12.486;2024-03-22T00:31:27;8.40;67.30
13245;DHT22;6689;53.400;12.486;2024-03-22T00:33:56;8.40;58.40
13245;DHT22;6689;53.400;12.486;2024-03-22T00:36:22;8.40;58.60
13245;DHT22;6689;53.400;12.486;2024-03-22T00:38:49;8.50;53.80
13245;DHT22;6689;53.400;12.486;2024-03-22T00:41:15;8.40;53.40
13245;DHT22;6689;53.400;12.486;2024-03-22T00:43:43;8.40;51.40
13245;DHT22;6689;53.400;12.486;2024-03-22T00:46:12;8.40;55.20
13245;DHT22;6689;53.400;12.486;2024-03-22T00:48:42;8.40;58.90
13245;DHT22;6689;53.400;12.486;2024-03-22T00:51:09;8.40;83.10
13245;DHT22;6689;53.400;12.486;2024-03-22T00:53:36;8.40;87.10
13245;DHT22;6689;53.400;12.486;2024-03-22T00:56:02;8.40;99.90
13245;DHT22;6689;53.400;12.486;2024-03-22T00:58:30;8.40;99.90
13245;DHT22;6689;53.400;12.486;2024-03-22T01:00:56;8.40;99.90
13245;DHT22;6689;53.400;12.486;2024-03-22T01:03:24;8.40;99.90
13245;DHT22;6689;53.400;12.486;2024-03-22T01:05:52;8.40;97.80
13245;DHT22;6689;53.400;12.486;2024-03-22T01:08:19;8.40;99.90
13245;DHT22;6689;53.400;12.486;2024-03-22T01:10:46;8.40;99.90
13245;DHT22;6689;53.400;12.486;2024-03-22T01:13:13;8.30;99.90
13245;DHT22;6689;53.400;12.486;2024-03-22T01:15:39;8.30;99.90
13245;DHT22;6689;53.400;12.486;2024-03-22T01:18:06;8.30;99.90
13245;DHT22;6689;53.400;12.486;2024-03-22T01:20:34;8.40;99.90
13245;DHT22;6689;53.400;12.486;2024-03-22T01:23:03;8.30;99.90
13245;DHT22;6689;53.400;12.486;2024-03-22T01:25:31;8.30;99.90
13245;DHT22;6689;53.400;12.486;2024-03-22T01:27:59;8.30;99.90
13245;DHT22;6689;53.400;12.486;2024-03-22T01:30:26;8.30;99.90
13245;DHT22;6689;53.400;12.486;2024-03-22T01:32:56;8.30;99.90
13245;DHT22;6689;53.400;12.486;2024-03-22T01:35:23;8.30;99.90
13245;DHT22;6689;53.400;12.486;2024-03-22T01:37:51;8.30;99.90
13245;DHT22;6689;53.400;12.486;2024-03-22T01:40:18;8.30;99.90
13245;DHT22;6689;53.400;12.486;2024-03-22T01:42:46;8.30;99.90
13245;DHT22;6689;53.400;12.486;2024-03-22T01:45:15;8.30;99.90
13245;DHT22;6689;53.400;12.486;2024-03-22T01:47:42;8.30;99.90
13245;DHT22;6689;53.400;12.486;2024-03-22T01:50:11;8.30;99.90
13245;DHT22;6689;53.400;12.486;2024-03-22T01:52:39;8.30;99.90
13245;DHT22;6689;53.400;12.486;2024-03-22T01:55:07;8.30;99.90
13245;DHT22;6689;53.400;12.486;2024-03-22T01:57:36;8.30;99.90
13245;DHT22;6689;53.400;12.486;2024-03-22T02:00:05;8.20;99.90
13245;DHT22;6689;53.400;12.486;2024-03-22T02:02:34;8.30;99.90
13245;DHT22;6689;53.400;12.486;2024-03-22T02:05:11;8.20;99.90
13245;DHT22;6689;53.400;12.486;2024-03-22T02:07:40;8.30;99.90
13245;DHT22;6689;53.400;12.486;2024-03-22T02:10:07;8.30;99.90
13245;DHT22;6689;53.400;12.486;2024-03-22T02:12:38;8.30;99.90
13245;DHT22;6689;53.400;12.486;2024-03-22T02:15:04;8.30;99.90
13245;DHT22;6689;53.400;12.486;2024-03-22T02:17:32;8.30;99.90
13245;DHT22;6689;53.400;12.486;2024-03-22T02:19:59;8.30;99.90
13245;DHT22;6689;53.400;12.486;2024-03-22T02:22:27;8.30;99.90
13245;DHT22;6689;53.400;12.486;2024-03-22T02:24:55;8.30;99.90
13245;DHT22;6689;53.400;12.486;2024-03-22T02:27:24;8.30;99.90
13245;DHT22;6689;53.400;12.486;2024-03-22T02:29:50;8.30;99.90
13245;DHT22;6689;53.400;12.486;2024-03-22T02:32:19;8.30;99.90
13245;DHT22;6689;53.400;12.486;2024-03-22T02:34:45;8.40;99.90
13245;DHT22;6689;53.400;12.486;2024-03-22T02:37:13;8.40;99.90
13245;DHT22;6689;53.400;12.486;2024-03-22T02:39:40;8.30;99.90
13245;DHT22;6689;53.400;12.486;2024-03-22T02:42:10;8.40;99.90
13245;DHT22;6689;53.400;12.486;2024-03-22T02:44:36;8.40;99.90
13245;DHT22;6689;53.400;12.486;2024-03-22T02:47:10;8.40;99.90
13245;DHT22;6689;53.400;12.486;2024-03-22T02:49:38;8.40;99.90
13245;DHT22;6689;53.400;12.486;2024-03-22T02:52:05;8.40;99.90
13245;DHT22;6689;53.400;12.486;2024-03-22T02:54:32;8.40;99.90
13245;DHT22;6689;53.400;12.486;2024-03-22T02:56:59;8.40;99.90
13245;DHT22;6689;53.400;12.486;2024-03-22T02:59:29;8.40;99.90
13245;DHT22;6689;53.400;12.486;2024-03-22T03:01:56;8.40;99.90
13245;DHT22;6689;53.400;12.486;2024-03-22T03:04:22;8.40;99.90
13245;DHT22;6689;53.400;12.486;2024-03-22T03:06:50;8.40;99.90
13245;DHT22;6689;53.400;12.486;2024-03-22T03:09:16;8.40;99.90
13245;DHT22;6689;53.400;12.486;2024-03-22T03:11:43;8.40;99.90
13245;DHT22;6689;53.400;12.486;2024-03-22T03:14:09;8.40;99.90
13245;DHT22;6689;53.400;12.486;2024-03-22T03:16:38;8.40;99.90
13245;DHT22;6689;53.400;12.486;2024-03-22T03:19:04;8.40;99.90
13245;DHT22;6689;53.400;12.486;2024-03-22T03:21:32;8.40;99.90
13245;DHT22;6689;53.400;12.486;2024-03-22T03:23:58;8.40;99.90
13245;DHT22;6689;53.400;12.486;2024-03-22T03:26:25;8.40;99.90
13245;DHT22;6689;53.400;12.486;2024-03-22T03:28:52;8.40;99.90
13245;DHT22;6689;53.400;12.486;2024-03-22T03:31:21;8.40;99.90
13245;DHT22;6689;53.400;12.486;2024-03-22T03:33:50;8.40;99.90
13245;DHT22;6689;53.400;12.486;2024-03-22T03:36:17;8.50;99.90
13245;DHT22;6689;53.400;12.486;2024-03-22T03:38:43;8.50;99.90
13245;DHT22;6689;53.400;12.486;2024-03-22T03:41:11;8.40;99.90
13245;DHT22;6689;53.400;12.486;2024-03-22T03:43:37;8.50;99.90
13245;DHT22;6689;53.400;12.486;2024-03-22T03:46:04;8.50;99.90
13245;DHT22;6689;53.400;12.486;2024-03-22T03:48:31;8.50;99.90
13245;DHT22;6689;53.400;12.486;2024-03-22T03:51:00;8.50;99.90
13245;DHT22;6689;53.400;12.486;2024-03-22T03:53:29;8.50;99.90
13245;DHT22;6689;53.400;12.486;2024-03-22T03:55:57;8.60;99.90
13245;DHT22;6689;53.400;12.486;2024-03-22T03:58:23;8.60;99.90
13245;DHT22;6689;53.400;12.486;2024-03-22T04:00:53;8.60;99.90
13245;DHT22;6689;53.400;12.486;2024-03-22T04:03:22;8.60;99.90
13245;DHT22;6689;53.400;12.486;2024-03-22T04:05:56;8.60;99.90
13245;DHT22;6689;53.400;12.486;2024-03-22T04:08:24;8.60;99.90
13245;DHT22;6689;53.400;12.486;2024-03-22T04:10:52;8.60;99.90
13245;DHT22;6689;53.400;12.486;2024-03-22T04:13:18;8.60;99.90
13245;DHT22;6689;53.400;12.486;2024-03-22T04:15:46;8.60;99.90
13245;DHT22;6689;53.400;12.486;2024-03-22T04:18:12;8.60;99.90
13245;DHT22;6689;53.400;12.486;2024-03-22T04:20:40;8.70;99.90
13245;DHT22;6689;53.400;12.486;2024-03-22T04:23:06;8.70;99.90
13245;DHT22;6689;53.400;12.486;2024-03-22T04:25:35;8.70;99.90
13245;DHT22;6689;53.400;12.486;2024-03-22T04:28:01;8.70;99.90
13245;DHT22;6689;53.400;12.486;2024-03-22T04:30:29;8.70;99.90
13245;DHT22;6689;53.400;12.486;2024-03-22T04:32:55;8.70;99.90
13245;DHT22;6689;53.400;12.486;2024-03-22T04:35:22;8.70;99.90
13245;DHT22;6689;53.400;12.486;2024-03-22T04:37:50;8.70;99.90
13245;DHT22;6689;53.400;12.486;2024-03-22T04:40:19;8.60;99.90
13245;DHT22;6689;53.400;12.486;2024-03-22T04:42:48;8.60;99.90
13245;DHT22;6689;53.400;12.486;2024-03-22T04:45:14;8.60;99.90
13245;DHT22;6689;53.400;12.486;2024-03-22T04:47:41;8.70;99.90
13245;DHT22;6689;53.400;12.486;2024-03-22T04:50:09;8.60;99.90
13245;DHT22;6689;53.400;12.486;2024-03-22T04:52:39;8.70;99.90
13245;DHT22;6689;53.400;12.486;2024-03-22T04:55:05;8.70;99.90
13245;DHT22;6689;53.400;12.486;2024-03-22T04:57:33;8.70;99.90
13245;DHT22;6689;53.400;12.486;2024-03-22T05:00:01;8.70;99.90
13245;DHT22;6689;53.400;12.486;2024-03-22T05:02:29;8.60;99.90
13245;DHT22;6689;53.400;12.486;2024-03-22T05:04:55;8.70;99.90
13245;DHT22;6689;53.400;12.486;2024-03-22T05:07:23;8.70;99.90
13245;DHT22;6689;53.400;12.486;2024-03-22T05:09:49;8.60;99.90
13245;DHT22;6689;53.400;12.486;2024-03-22T05:12:16;8.70;99.90
13245;DHT22;6689;53.400;12.486;2024-03-22T05:14:43;8.70;99.90
13245;DHT22;6689;53.400;12.486;2024-03-22T05:17:12;8.70;99.90
13245;DHT22;6689;53.400;12.486;2024-03-22T05:19:38;8.70;99.90
13245;DHT22;6689;53.400;12.486;2024-03-22T05:22:05;8.80;99.90
13245;DHT22;6689;53.400;12.486;2024-03-22T05:24:32;8.70;99.90
13245;DHT22;6689;53.400;12.486;2024-03-22T05:27:00;8.70;99.90
13245;DHT22;6689;53.400;12.486;2024-03-22T05:29:26;8.70;99.90
13245;DHT22;6689;53.400;12.486;2024-03-22T05:31:58;8.80;99.90
13245;DHT22;6689;53.400;12.486;2024-03-22T05:34:25;8.80;99.90
13245;DHT22;6689;53.400;12.486;2024-03-22T05:36:53;8.80;99.90
13245;DHT22;6689;53.400;12.486;2024-03-22T05:39:20;8.80;99.90
13245;DHT22;6689;53.400;12.486;2024-03-22T05:41:47;8.80;99.90
13245;DHT22;6689;53.400;12.486;2024-03-22T05:44:13;8.90;99.90
13245;DHT22;6689;53.400;12.486;2024-03-22T05:46:40;8.90;99.90
13245;DHT22;6689;53.400;12.486;2024-03-22T05:49:08;8.90;99.90
13245;DHT22;6689;53.400;12.486;2024-03-22T05:51:38;8.90;99.90
13245;DHT22;6689;53.400;12.486;2024-03-22T05:54:04;8.90;99.90
13245;DHT22;6689;53.400;12.486;2024-03-22T05:56:32;8.90;99.90
13245;DHT22;6689;53.400;12.486;2024-03-22T05:59:00;9.00;99.90
13245;DHT22;6689;53.400;12.486;2024-03-22T06:01:27;8.90;99.90
13245;DHT22;6689;53.400;12.486;2024-03-22T06:03:53;8.90;99.90
13245;DHT22;6689;53.400;12.486;2024-03-22T06:06:21;9.00;99.90
13245;DHT22;6689;53.400;12.486;2024-03-22T06:08:52;8.90;99.90
13245;DHT22;6689;53.400;12.486;2024-03-22T06:11:22;9.00;99.90
13245;DHT22;6689;53.400;12.486;2024-03-22T06:13:49;9.00;99.90
13245;DHT22;6689;53.400;12.486;2024-03-22T06:16:16;9.00;99.90
13245;DHT22;6689;53.400;12.486;2024-03-22T06:18:43;9.00;99.90
13245;DHT22;6689;53.400;12.486;2024-03-22T06:21:11;9.10;99.90
13245;DHT22;6689;53.400;12.486;2024-03-22T06:23:40;9.10;99.90
13245;DHT22;6689;53.400;12.486;2024-03-22T06:26:09;9.10;99.90
13245;DHT22;6689;53.400;12.486;2024-03-22T06:28:36;9.10;99.90
13245;DHT22;6689;53.400;12.486;2024-03-22T06:31:03;9.20;99.90
13245;DHT22;6689;53.400;12.486;2024-03-22T06:33:29;9.10;99.90
13245;DHT22;6689;53.400;12.486;2024-03-22T06:35:56;9.20;99.90
13245;DHT22;6689;53.400;12.486;2024-03-22T06:38:22;9.10;99.90
13245;DHT22;6689;53.400;12.486;2024-03-22T06:40:49;9.10;99.90
13245;DHT22;6689;53.400;12.486;2024-03-22T06:43:17;9.20;99.90
13245;DHT22;6689;53.400;12.486;2024-03-22T06:45:46;9.20;99.90
13245;DHT22;6689;53.400;12.486;2024-03-22T06:48:12;9.20;99.90
13245;DHT22;6689;53.400;12.486;2024-03-22T06:50:41;9.20;99.90
13245;DHT22;6689;53.400;12.486;2024-03-22T06:53:07;9.20;99.90
13245;DHT22;6689;53.400;12.486;2024-03-22T06:55:35;9.30;99.90
13245;DHT22;6689;53.400;12.486;2024-03-22T06:58:02;9.30;99.90
13245;DHT22;6689;53.400;12.486;2024-03-22T07:00:30;9.30;99.90
13245;DHT22;6689;53.400;12.486;2024-03-22T07:02:56;9.30;99.90
13245;DHT22;6689;53.400;12.486;2024-03-22T07:05:30;9.40;99.90
13245;DHT22;6689;53.400;12.486;2024-03-22T07:07:56;9.30;99.90
13245;DHT22;6689;53.400;12.486;2024-03-22T07:10:24;9.40;99.90
13245;DHT22;6689;53.400;12.486;2024-03-22T07:12:54;9.50;99.90
13245;DHT22;6689;53.400;12.486;2024-03-22T07:15:22;9.50;99.90
13245;DHT22;6689;53.400;12.486;2024-03-22T07:17:50;9.50;99.90
13245;DHT22;6689;53.400;12.486;2024-03-22T07:20:17;9.60;99.90
13245;DHT22;6689;53.400;12.486;2024-03-22T07:22:45;9.60;99.90
13245;DHT22;6689;53.400;12.486;2024-03-22T07:25:13;9.70;99.90
13245;DHT22;6689;53.400;12.486;2024-03-22T07:27:39;9.60;99.90
13245;DHT22;6689;53.400;12.486;2024-03-22T07:30:07;9.70;99.90
13245;DHT22;6689;53.400;12.486;2024-03-22T07:32:35;9.50;99.90
13245;DHT22;6689;53.400;12.486;2024-03-22T07:35:05;9.80;99.90
13245;DHT22;6689;53.400;12.486;2024-03-22T07:37:33;9.90;99.90
13245;DHT22;6689;53.400;12.486;2024-03-22T07:40:07;9.90;99.90
13245;DHT22;6689;53.400;12.486;2024-03-22T07:42:34;10.00;99.90
13245;DHT22;6689;53.400;12.486;2024-03-22T07:45:01;10.00;99.90
13245;DHT22;6689;53.400;12.486;2024-03-22T07:47:28;10.10;99.90
13245;DHT22;6689;53.400;12.486;2024-03-22T07:49:55;10.20;99.90
13245;DHT22;6689;53.400;12.486;2024-03-22T07:52:23;10.30;99.90
13245;DHT22;6689;53.400;12.486;2024-03-22T07:54:51;10.30;99.90
13245;DHT22;6689;53.400;12.486;2024-03-22T07:57:18;10.50;99.90
13245;DHT22;6689;53.400;12.486;2024-03-22T07:59:46;10.50;99.90
13245;DHT22;6689;53.400;12.486;2024-03-22T08:02:14;10.60;99.90
13245;DHT22;6689;53.400;12.486;2024-03-22T08:04:41;10.70;99.90
13245;DHT22;6689;53.400;12.486;2024-03-22T08:07:07;10.70;99.90
13245;DHT22;6689;53.400;12.486;2024-03-22T08:09:35;10.70;99.90
13245;DHT22;6689;53.400;12.486;2024-03-22T08:12:02;10.80;99.90
13245;DHT22;6689;53.400;12.486;2024-03-22T08:14:29;10.90;99.90
13245;DHT22;6689;53.400;12.486;2024-03-22T08:16:55;11.00;99.90
13245;DHT22;6689;53.400;12.486;2024-03-22T08:19:22;11.00;99.90
13245;DHT22;6689;53.400;12.486;2024-03-22T08:21:49;11.10;99.90
13245;DHT22;6689;53.400;12.486;2024-03-22T08:24:18;11.10;99.90
13245;DHT22;6689;53.400;12.486;2024-03-22T08:26:46;11.20;99.90
13245;DHT22;6689;53.400;12.486;2024-03-22T08:29:13;11.10;99.90
13245;DHT22;6689;53.400;12.486;2024-03-22T08:31:40;11.20;99.90
13245;DHT22;6689;53.400;12.486;2024-03-22T08:34:08;11.20;99.90
13245;DHT22;6689;53.400;12.486;2024-03-22T08:36:35;11.40;88.30
13245;DHT22;6689;53.400;12.486;2024-03-22T08:39:03;11.60;99.90
13245;DHT22;6689;53.400;12.486;2024-03-22T08:41:30;11.60;90.70
13245;DHT22;6689;53.400;12.486;2024-03-22T08:43:59;11.50;32.60
13245;DHT22;6689;53.400;12.486;2024-03-22T08:46:26;11.60;41.70
13245;DHT22;6689;53.400;12.486;2024-03-22T08:48:54;11.60;46.60
13245;DHT22;6689;53.400;12.486;2024-03-22T08:51:21;11.70;35.10
13245;DHT22;6689;53.400;12.486;2024-03-22T08:53:48;11.80;40.90
13245;DHT22;6689;53.400;12.486;2024-03-22T08:56:17;11.80;4.70
13245;DHT22;6689;53.400;12.486;2024-03-22T08:58:46;12.00;7.90
13245;DHT22;6689;53.400;12.486;2024-03-22T09:01:14;12.00;1.00
13245;DHT22;6689;53.400;12.486;2024-03-22T09:03:44;12.00;1.00
13245;DHT22;6689;53.400;12.486;2024-03-22T09:06:14;11.90;1.00
13245;DHT22;6689;53.400;12.486;2024-03-22T09:08:46;12.00;1.00
13245;DHT22;6689;53.400;12.486;2024-03-22T09:11:12;12.00;1.00
13245;DHT22;6689;53.400;12.486;2024-03-22T09:13:39;12.00;1.00
13245;DHT22;6689;53.400;12.486;2024-03-22T09:16:06;12.00;1.00
13245;DHT22;6689;53.400;12.486;2024-03-22T09:18:34;11.90;1.00
13245;DHT22;6689;53.400;12.486;2024-03-22T09:21:01;11.90;1.00
13245;DHT22;6689;53.400;12.486;2024-03-22T09:23:30;11.90;1.00
13245;DHT22;6689;53.400;12.486;2024-03-22T09:25:56;11.90;1.00
13245;DHT22;6689;53.400;12.486;2024-03-22T09:28:23;12.00;1.00
13245;DHT22;6689;53.400;12.486;2024-03-22T09:30:49;12.00;1.00
13245;DHT22;6689;53.400;12.486;2024-03-22T09:33:16;12.00;1.00
13245;DHT22;6689;53.400;12.486;2024-03-22T09:35:45;12.10;3.30
13245;DHT22;6689;53.400;12.486;2024-03-22T09:38:12;12.20;1.00
13245;DHT22;6689;53.400;12.486;2024-03-22T09:40:38;12.20;1.00
13245;DHT22;6689;53.400;12.486;2024-03-22T09:43:08;12.30;1.00
13245;DHT22;6689;53.400;12.486;2024-03-22T09:45:35;12.10;1.00
13245;DHT22;6689;53.400;12.486;2024-03-22T09:48:03;12.20;1.00
13245;DHT22;6689;53.400;12.486;2024-03-22T09:50:30;12.10;1.00
13245;DHT22;6689;53.400;12.486;2024-03-22T09:52:59;12.10;1.00
13245;DHT22;6689;53.400;12.486;2024-03-22T09:55:26;12.00;1.00
13245;DHT22;6689;53.400;12.486;2024-03-22T09:57:53;12.00;1.00
13245;DHT22;6689;53.400;12.486;2024-03-22T10:00:21;12.00;1.00
13245;DHT22;6689;53.400;12.486;2024-03-22T10:02:50;12.00;1.00
13245;DHT22;6689;53.400;12.486;2024-03-22T10:05:17;11.80;17.80
13245;DHT22;6689;53.400;12.486;2024-03-22T10:07:47;11.90;75.90
13245;DHT22;6689;53.400;12.486;2024-03-22T10:10:14;11.90;85.10
13245;DHT22;6689;53.400;12.486;2024-03-22T10:12:42;11.80;99.90
13245;DHT22;6689;53.400;12.486;2024-03-22T10:15:08;11.80;99.90
13245;DHT22;6689;53.400;12.486;2024-03-22T10:17:41;11.80;99.90
13245;DHT22;6689;53.400;12.486;2024-03-22T10:20:12;11.70;99.90
13245;DHT22;6689;53.400;12.486;2024-03-22T10:22:42;11.70;99.90
13245;DHT22;6689;53.400;12.486;2024-03-22T10:25:09;11.70;99.90
13245;DHT22;6689;53.400;12.486;2024-03-22T10:27:40;11.70;99.90
13245;DHT22;6689;53.400;12.486;2024-03-22T10:30:08;11.70;99.90
13245;DHT22;6689;53.400;12.486;2024-03-22T10:32:36;11.70;99.90
13245;DHT22;6689;53.400;12.486;2024-03-22T10:35:04;11.80;99.90
13245;DHT22;6689;53.400;12.486;2024-03-22T10:37:33;11.80;99.90
13245;DHT22;6689;53.400;12.486;2024-03-22T10:40:01;11.80;99.90
13245;DHT22;6689;53.400;12.486;2024-03-22T10:42:37;11.90;99.90
13245;DHT22;6689;53.400;12.486;2024-03-22T10:45:07;11.90;99.90
13245;DHT22;6689;53.400;12.486;2024-03-22T10:47:35;12.00;99.90
13245;DHT22;6689;53.400;12.486;2024-03-22T10:50:06;12.00;99.90
13245;DHT22;6689;53.400;12.486;2024-03-22T10:52:38;12.10;99.90
13245;DHT22;6689;53.400;12.486;2024-03-22T10:55:07;12.10;99.90
13245;DHT22;6689;53.400;12.486;2024-03-22T10:57:36;12.10;99.90
13245;DHT22;6689;53.400;12.486;2024-03-22T11:00:08;12.00;99.90
13245;DHT22;6689;53.400;12.486;2024-03-22T11:02:37;12.10;99.90
13245;DHT22;6689;53.400;12.486;2024-03-22T11:05:03;12.20;99.90
13245;DHT22;6689;53.400;12.486;2024-03-22T11:07:31;12.20;99.90
13245;DHT22;6689;53.400;12.486;2024-03-22T11:09:58;12.30;99.90
13245;DHT22;6689;53.400;12.486;2024-03-22T11:12:25;12.40;99.90
13245;DHT22;6689;53.400;12.486;2024-03-22T11:14:53;12.40;99.90
13245;DHT22;6689;53.400;12.486;2024-03-22T11:17:22;12.50;99.90
13245;DHT22;6689;53.400;12.486;2024-03-22T11:19:51;12.50;99.90
13245;DHT22;6689;53.400;12.486;2024-03-22T11:22:19;12.40;99.90
13245;DHT22;6689;53.400;12.486;2024-03-22T11:24:47;12.30;75.50
13245;DHT22;6689;53.400;12.486;2024-03-22T11:27:14;12.30;99.90
13245;DHT22;6689;53.400;12.486;2024-03-22T11:29:40;12.30;71.70
13245;DHT22;6689;53.400;12.486;2024-03-22T11:32:09;12.20;80.90
13245;DHT22;6689;53.400;12.486;2024-03-22T11:34:37;12.20;99.90
13245;DHT22;6689;53.400;12.486;2024-03-22T11:37:07;12.20;99.90
13245;DHT22;6689;53.400;12.486;2024-03-22T11:39:36;12.10;99.90
13245;DHT22;6689;53.400;12.486;2024-03-22T11:42:04;12.20;99.90
13245;DHT22;6689;53.400;12.486;2024-03-22T11:44:32;12.20;99.90
13245;DHT22;6689;53.400;12.486;2024-03-22T11:47:02;12.20;99.90
13245;DHT22;6689;53.400;12.486;2024-03-22T11:49:29;12.20;57.60
13245;DHT22;6689;53.400;12.486;2024-03-22T11:52:00;12.20;75.30
13245;DHT22;6689;53.400;12.486;2024-03-22T11:54:27;12.10;52.80
13245;DHT22;6689;53.400;12.486;2024-03-22T11:56:55;12.10;44.60
13245;DHT22;6689;53.400;12.486;2024-03-22T11:59:22;12.10;67.30
13245;DHT22;6689;53.400;12.486;2024-03-22T12:01:49;12.10;64.80
13245;DHT22;6689;53.400;12.486;2024-03-22T12:04:15;12.10;44.10
13245;DHT22;6689;53.400;12.486;2024-03-22T12:06:43;12.00;32.10
13245;DHT22;6689;53.400;12.486;2024-03-22T12:09:11;12.00;39.80
13245;DHT22;6689;53.400;12.486;2024-03-22T12:11:40;12.00;57.40
13245;DHT22;6689;53.400;12.486;2024-03-22T12:14:06;12.00;85.90
13245;DHT22;6689;53.400;12.486;2024-03-22T12:16:34;12.10;90.00
13245;DHT22;6689;53.400;12.486;2024-03-22T12:19:02;12.00;84.70
13245;DHT22;6689;53.400;12.486;2024-03-22T12:21:29;12.00;99.90
13245;DHT22;6689;53.400;12.486;2024-03-22T12:23:56;12.10;97.10
13245;DHT22;6689;53.400;12.486;2024-03-22T12:26:24;12.10;99.90
13245;DHT22;6689;53.400;12.486;2024-03-22T12:28:50;12.10;99.90
13245;DHT22;6689;53.400;12.486;2024-03-22T12:31:18;12.10;99.90
13245;DHT22;6689;53.400;12.486;2024-03-22T12:33:44;12.10;99.90
13245;DHT22;6689;53.400;12.486;2024-03-22T12:36:12;12.00;99.90
13245;DHT22;6689;53.400;12.486;2024-03-22T12:38:40;12.00;99.90
13245;DHT22;6689;53.400;12.486;2024-03-22T12:41:07;12.10;99.90
13245;DHT22;6689;53.400;12.486;2024-03-22T12:43:37;11.90;99.90
13245;DHT22;6689;53.400;12.486;2024-03-22T12:46:04;12.10;99.90
13245;DHT22;6689;53.400;12.486;2024-03-22T12:48:30;12.00;99.90
13245;DHT22;6689;53.400;12.486;2024-03-22T12:50:57;12.10;99.90
13245;DHT22;6689;53.400;12.486;2024-03-22T12:53:25;12.10;99.90
13245;DHT22;6689;53.400;12.486;2024-03-22T12:55:53;12.10;99.90
13245;DHT22;6689;53.400;12.486;2024-03-22T12:58:20;12.10;99.90
13245;DHT22;6689;53.400;12.486;2024-03-22T13:00:48;12.10;99.90
13245;DHT22;6689;53.400;12.486;2024-03-22T13:03:15;12.10;99.90
13245;DHT22;6689;53.400;12.486;2024-03-22T13:05:43;12.10;99.90
13245;DHT22;6689;53.400;12.486;2024-03-22T13:08:09;12.10;99.90
13245;DHT22;6689;53.400;12.486;2024-03-22T13:10:39;12.10;99.90
13245;DHT22;6689;53.400;12.486;2024-03-22T13:13:09;12.10;99.90
13245;DHT22;6689;53.400;12.486;2024-03-22T13:15:36;12.10;99.90
13245;DHT22;6689;53.400;12.486;2024-03-22T13:18:05;12.10;99.90
13245;DHT22;6689;53.400;12.486;2024-03-22T13:20:34;12.10;99.90
13245;DHT22;6689;53.400;12.486;2024-03-22T13:23:00;12.10;99.90
13245;DHT22;6689;53.400;12.486;2024-03-22T13:25:28;12.00;99.90
13245;DHT22;6689;53.400;12.486;2024-03-22T13:27:54;12.10;99.90
13245;DHT22;6689;53.400;12.486;2024-03-22T13:30:23;12.00;99.90
13245;DHT22;6689;53.400;12.486;2024-03-22T13:32:49;12.10;99.90
13245;DHT22;6689;53.400;12.486;2024-03-22T13:35:18;12.00;99.90
13245;DHT22;6689;53.400;12.486;2024-03-22T13:37:45;12.10;99.90
13245;DHT22;6689;53.400;12.486;2024-03-22T13:40:16;12.20;99.90
13245;DHT22;6689;53.400;12.486;2024-03-22T13:42:42;12.00;99.90
13245;DHT22;6689;53.400;12.486;2024-03-22T13:45:09;12.00;99.90
13245;DHT22;6689;53.400;12.486;2024-03-22T13:47:36;11.90;99.90
13245;DHT22;6689;53.400;12.486;2024-03-22T13:50:06;12.10;99.90
13245;DHT22;6689;53.400;12.486;2024-03-22T13:52:36;12.10;99.90
13245;DHT22;6689;53.400;12.486;2024-03-22T13:55:04;12.00;99.90
13245;DHT22;6689;53.400;12.486;2024-03-22T13:57:30;12.00;99.90
13245;DHT22;6689;53.400;12.486;2024-03-22T13:59:59;12.10;99.90
13245;DHT22;6689;53.400;12.486;2024-03-22T14:02:28;12.10;99.90
13245;DHT22;6689;53.400;12.486;2024-03-22T14:04:57;12.10;99.90
13245;DHT22;6689;53.400;12.486;2024-03-22T14:07:23;12.10;99.90
13245;DHT22;6689;53.400;12.486;2024-03-22T14:09:52;12.10;99.90
13245;DHT22;6689;53.400;12.486;2024-03-22T14:12:18;12.00;99.90
13245;DHT22;6689;53.400;12.486;2024-03-22T14:14:46;12.10;99.90
13245;DHT22;6689;53.400;12.486;2024-03-22T14:17:12;12.10;99.90
13245;DHT22;6689;53.400;12.486;2024-03-22T14:19:41;12.10;99.90
13245;DHT22;6689;53.400;12.486;2024-03-22T14:22:07;12.10;99.90
13245;DHT22;6689;53.400;12.486;2024-03-22T14:24:34;12.10;99.90
13245;DHT22;6689;53.400;12.486;2024-03-22T14:27:02;12.00;99.90
13245;DHT22;6689;53.400;12.486;2024-03-22T14:29:29;12.00;99.90
13245;DHT22;6689;53.400;12.486;2024-03-22T14:31:56;11.80;99.90
13245;DHT22;6689;53.400;12.486;2024-03-22T14:34:24;11.80;99.90
13245;DHT22;6689;53.400;12.486;2024-03-22T14:36:50;11.80;99.90
13245;DHT22;6689;53.400;12.486;2024-03-22T14:39:18;11.90;99.90
13245;DHT22;6689;53.400;12.486;2024-03-22T14:41:44;11.90;99.90
13245;DHT22;6689;53.400;12.486;2024-03-22T14:44:15;12.00;99.90
13245;DHT22;6689;53.400;12.486;2024-03-22T14:46:41;12.00;99.90
13245;DHT22;6689;53.400;12.486;2024-03-22T14:49:09;12.00;99.90
13245;DHT22;6689;53.400;12.486;2024-03-22T14:51:35;12.10;99.90
13245;DHT22;6689;53.400;12.486;2024-03-22T14:54:02;12.00;99.90
13245;DHT22;6689;53.400;12.486;2024-03-22T14:56:30;12.10;99.90
13245;DHT22;6689;53.400;12.486;2024-03-22T14:59:02;12.10;99.90
13245;DHT22;6689;53.400;12.486;2024-03-22T15:01:30;12.10;99.90
13245;DHT22;6689;53.400;12.486;2024-03-22T15:03:57;12.10;99.90
13245;DHT22;6689;53.400;12.486;2024-03-22T15:06:23;12.10;99.90
13245;DHT22;6689;53.400;12.486;2024-03-22T15:08:51;12.10;99.90
13245;DHT22;6689;53.400;12.486;2024-03-22T15:11:17;12.00;99.90
13245;DHT22;6689;53.400;12.486;2024-03-22T15:13:44;12.10;99.90
13245;DHT22;6689;53.400;12.486;2024-03-22T15:16:10;12.10;99.90
13245;DHT22;6689;53.400;12.486;2024-03-22T15:18:40;12.00;99.90
13245;DHT22;6689;53.400;12.486;2024-03-22T15:21:09;12.00;99.90
13245;DHT22;6689;53.400;12.486;2024-03-22T15:23:36;12.10;99.90
13245;DHT22;6689;53.400;12.486;2024-03-22T15:26:02;12.10;99.90
13245;DHT22;6689;53.400;12.486;2024-03-22T15:28:30;12.10;99.90
13245;DHT22;6689;53.400;12.486;2024-03-22T15:30:57;12.10;99.90
13245;DHT22;6689;53.400;12.486;2024-03-22T15:33:24;12.00;99.90
13245;DHT22;6689;53.400;12.486;2024-03-22T15:35:53;11.90;99.90
13245;DHT22;6689;53.400;12.486;2024-03-22T15:38:19;12.10;99.90
13245;DHT22;6689;53.400;12.486;2024-03-22T15:40:47;11.70;99.90
13245;DHT22;6689;53.400;12.486;2024-03-22T15:43:13;11.90;99.90